Time;durP1;ratioP1;P1;durP2;ratioP2;P2;SDS_P1;SDS_P2;PMS_P1;PMS_P2;Temp;Humidity;BMP_temperature;BMP_pressure;BME280_temperature;BME280_humidity;BME280_pressure;Samples;Min_cycle;Max_cycle;Signal;HPM_P1;HPM_P2
2024/03/21 00:02:05;;;;;;;40.03;19.85;;;;;;;;;;5072195;28;20024;-69
2024/03/21 00:04:31;;;;;;;38.15;19.50;;;;;;;;;;5072022;28;20162;-68
2024/03/21 00:06:56;;;;;;;34.70;19.38;;;;;;;;;;5056933;28;20692;-70
2024/03/21 00:09:22;;;;;;;39.65;18.38;;;;;;;;;;5056338;28;20075;-69
2024/03/21 00:11:48;;;;;;;37.83;19.30;;;;;;;;;;5056580;28;20024;-71
2024/03/21 00:14:15;;;;;;;36.58;19.02;;;;;;;;;;5055823;28;20357;-69
2024/03/21 00:16:41;;;;;;;39.78;19.95;;;;;;;;;;5073365;28;20432;-69
2024/03/21 00:19:07;;;;;;;44.10;19.58;;;;;;;;;;5055933;28;20034;-69
2024/03/21 00:21:34;;;;;;;37.95;19.15;;;;;;;;;;5053494;28;20020;-69
2024/03/21 00:24:00;;;;;;;43.72;19.05;;;;;;;;;;5051974;28;20029;-70
2024/03/21 00:26:25;;;;;;;37.38;19.77;;;;;;;;;;5070799;28;20028;-67
2024/03/21 00:28:51;;;;;;;38.42;19.05;;;;;;;;;;5052410;28;20411;-69
2024/03/21 00:31:16;;;;;;;43.95;21.15;;;;;;;;;;5070323;28;20032;-70
2024/03/21 00:33:47;;;;;;;39.25;20.40;;;;;;;;;;5052869;28;20097;-70
2024/03/21 00:36:14;;;;;;;44.75;18.48;;;;;;;;;;5052601;28;20150;-71
2024/03/21 00:38:39;;;;;;;38.83;20.92;;;;;;;;;;5052878;28;20082;-69
2024/03/21 00:41:05;;;;;;;44.28;20.13;;;;;;;;;;5054051;28;20387;-69
2024/03/21 00:43:30;;;;;;;38.20;18.92;;;;;;;;;;5071092;28;20024;-70
2024/03/21 00:45:56;;;;;;;41.30;20.67;;;;;;;;;;5071201;28;20075;-70
2024/03/21 00:48:22;;;;;;;38.72;19.17;;;;;;;;;;5051857;28;20024;-71
2024/03/21 00:50:48;;;;;;;42.47;19.38;;;;;;;;;;5051679;28;20024;-70
2024/03/21 00:53:13;;;;;;;44.08;19.45;;;;;;;;;;5051815;28;20649;-66
2024/03/21 00:55:39;;;;;;;39.90;19.42;;;;;;;;;;5069825;28;20023;-69
2024/03/21 00:58:05;;;;;;;42.15;19.48;;;;;;;;;;5070722;28;20036;-68
2024/03/21 01:00:30;;;;;;;40.15;20.15;;;;;;;;;;5053135;28;20146;-70
2024/03/21 01:02:57;;;;;;;41.15;19.77;;;;;;;;;;5071160;28;20076;-69
2024/03/21 01:05:24;;;;;;;45.08;21.40;;;;;;;;;;5069915;28;20063;-69
2024/03/21 01:07:50;;;;;;;36.08;19.70;;;;;;;;;;5052047;28;20020;-69
2024/03/21 01:10:15;;;;;;;40.75;19.88;;;;;;;;;;5052535;28;20392;-68
2024/03/21 01:12:43;;;;;;;41.15;20.30;;;;;;;;;;5052085;28;20481;-70
2024/03/21 01:15:09;;;;;;;39.42;19.90;;;;;;;;;;5051799;28;20563;-69
2024/03/21 01:17:36;;;;;;;36.22;18.75;;;;;;;;;;5069490;28;20099;-69
2024/03/21 01:20:06;;;;;;;38.40;18.83;;;;;;;;;;5069897;28;20039;-70
2024/03/21 01:22:31;;;;;;;39.87;20.23;;;;;;;;;;5069735;28;20436;-70
2024/03/21 01:24:57;;;;;;;43.93;20.27;;;;;;;;;;5051726;28;20127;-71
2024/03/21 01:27:22;;;;;;;36.83;18.73;;;;;;;;;;5051799;28;20564;-70
2024/03/21 01:29:48;;;;;;;46.40;21.95;;;;;;;;;;5051708;28;20020;-68
2024/03/21 01:32:13;;;;;;;41.90;20.60;;;;;;;;;;5051588;28;20504;-70
2024/03/21 01:34:39;;;;;;;41.35;20.23;;;;;;;;;;5069251;28;20463;-70
2024/03/21 01:37:05;;;;;;;46.23;20.60;;;;;;;;;;5054065;28;20425;-71
2024/03/21 01:39:31;;;;;;;39.80;20.30;;;;;;;;;;5055561;28;20027;-68
2024/03/21 01:41:57;;;;;;;41.57;21.40;;;;;;;;;;5064479;28;20033;-68
2024/03/21 01:44:22;;;;;;;41.37;20.03;;;;;;;;;;5053885;28;20036;-68
2024/03/21 01:46:48;;;;;;;42.80;19.77;;;;;;;;;;5036321;28;20365;-70
2024/03/21 01:49:15;;;;;;;43.73;20.63;;;;;;;;;;5035635;28;20029;-70
2024/03/21 01:51:45;;;;;;;44.10;20.40;;;;;;;;;;5035622;28;20029;-69
2024/03/21 01:54:10;;;;;;;37.27;18.27;;;;;;;;;;5035330;28;20116;-71
2024/03/21 01:56:37;;;;;;;37.17;19.30;;;;;;;;;;5034914;28;20115;-69
2024/03/21 01:59:04;;;;;;;39.00;18.97;;;;;;;;;;5018729;28;20032;-70
2024/03/21 02:01:31;;;;;;;32.97;18.57;;;;;;;;;;5034929;28;20497;-70
2024/03/21 02:03:59;;;;;;;41.97;18.77;;;;;;;;;;5035658;28;20394;-69
2024/03/21 02:06:26;;;;;;;45.17;19.00;;;;;;;;;;5054508;28;20021;-69
2024/03/21 02:08:53;;;;;;;38.20;18.50;;;;;;;;;;5036342;28;20203;-69
2024/03/21 02:11:19;;;;;;;41.53;19.23;;;;;;;;;;5036951;28;20036;-71
2024/03/21 02:13:48;;;;;;;39.50;19.43;;;;;;;;;;5037574;28;20072;-70
2024/03/21 02:16:14;;;;;;;41.00;19.00;;;;;;;;;;5035810;28;20129;-68
2024/03/21 02:18:39;;;;;;;34.80;18.70;;;;;;;;;;5034995;28;20116;-68
2024/03/21 02:22:35;;;;;;;36.87;17.93;;;;;;;;;;5034619;28;20349;-69
2024/03/21 02:23:51;;;;;;;34.57;18.30;;;;;;;;;;5052607;28;20412;-70
2024/03/21 02:26:17;;;;;;;36.13;17.97;;;;;;;;;;5052922;28;20036;-68
2024/03/21 02:28:42;;;;;;;39.67;18.83;;;;;;;;;;5052623;28;20017;-68
2024/03/21 02:31:08;;;;;;;41.13;20.17;;;;;;;;;;5034815;28;20445;-70
2024/03/21 02:33:34;;;;;;;37.03;17.00;;;;;;;;;;5052539;28;20031;-70
2024/03/21 02:35:59;;;;;;;39.20;19.13;;;;;;;;;;5034669;28;20021;-70
2024/03/21 02:38:25;;;;;;;35.10;18.57;;;;;;;;;;5034550;28;20409;-72
2024/03/21 02:40:50;;;;;;;38.37;19.67;;;;;;;;;;5034708;28;20017;-69
2024/03/21 02:43:16;;;;;;;31.47;18.03;;;;;;;;;;5052707;28;20036;-70
2024/03/21 02:45:42;;;;;;;35.83;18.27;;;;;;;;;;5052314;28;20537;-69
2024/03/21 02:48:09;;;;;;;32.50;18.50;;;;;;;;;;5053257;28;20108;-70
2024/03/21 02:50:34;;;;;;;39.10;17.77;;;;;;;;;;5035815;28;20118;-69
2024/03/21 02:53:04;;;;;;;38.23;17.67;;;;;;;;;;5035275;28;20425;-70
2024/03/21 02:55:30;;;;;;;34.87;20.27;;;;;;;;;;5037258;28;20024;-71
2024/03/21 02:57:55;;;;;;;36.30;16.63;;;;;;;;;;5034593;28;20033;-70
2024/03/21 03:00:21;;;;;;;36.40;18.17;;;;;;;;;;5034485;28;20021;-69
2024/03/21 03:02:48;;;;;;;33.47;17.10;;;;;;;;;;5034118;28;20029;-69
2024/03/21 03:05:14;;;;;;;38.20;17.87;;;;;;;;;;5034081;28;20473;-69
2024/03/21 03:07:40;;;;;;;31.73;15.75;;;;;;;;;;5034398;28;20024;-69
2024/03/21 03:10:06;;;;;;;38.80;18.58;;;;;;;;;;5034399;28;20155;-69
2024/03/21 03:12:32;;;;;;;31.80;16.60;;;;;;;;;;5033927;28;20072;-69
2024/03/21 03:14:58;;;;;;;31.67;16.90;;;;;;;;;;5052085;28;20030;-69
2024/03/21 03:17:24;;;;;;;36.13;17.33;;;;;;;;;;5018040;28;20043;-69
2024/03/21 03:19:49;;;;;;;32.17;17.57;;;;;;;;;;5035744;28;20028;-68
2024/03/21 03:22:15;;;;;;;37.00;17.60;;;;;;;;;;5054084;28;20108;-70
2024/03/21 03:24:40;;;;;;;36.43;18.03;;;;;;;;;;5035333;28;20036;-69
2024/03/21 03:27:06;;;;;;;39.70;17.70;;;;;;;;;;5035990;28;20437;-69
2024/03/21 03:29:31;;;;;;;41.43;17.67;;;;;;;;;;5054282;28;20025;-68
2024/03/21 03:32:05;;;;;;;35.90;16.80;;;;;;;;;;5036794;28;20025;-68
2024/03/21 03:37:15;;;;;;;37.43;16.47;;;;;;;;;;5055768;28;20043;-69
2024/03/21 03:39:41;;;;;;;33.83;16.70;;;;;;;;;;5053203;28;20020;-69
2024/03/21 03:42:07;;;;;;;35.60;16.37;;;;;;;;;;5033461;28;20029;-69
2024/03/21 03:44:33;;;;;;;33.65;17.35;;;;;;;;;;5033487;28;20478;-68
2024/03/21 03:46:58;;;;;;;33.35;16.08;;;;;;;;;;5033421;28;20039;-69
2024/03/21 03:49:24;;;;;;;30.37;16.53;;;;;;;;;;5033184;28;20025;-69
2024/03/21 03:51:49;;;;;;;31.38;15.95;;;;;;;;;;5051013;28;20029;-69
2024/03/21 03:54:15;;;;;;;35.23;17.37;;;;;;;;;;5033385;28;20013;-70
2024/03/21 03:56:40;;;;;;;36.63;16.63;;;;;;;;;;5050766;28;20050;-67
2024/03/21 03:59:06;;;;;;;36.55;16.30;;;;;;;;;;5032167;28;20499;-67
2024/03/21 04:01:32;;;;;;;30.17;15.20;;;;;;;;;;5032594;28;20029;-68
2024/03/21 04:03:57;;;;;;;28.40;15.88;;;;;;;;;;5050706;28;20063;-69
2024/03/21 04:06:23;;;;;;;31.80;15.50;;;;;;;;;;5050845;28;20025;-69
2024/03/21 04:08:48;;;;;;;33.03;15.27;;;;;;;;;;5050659;28;20100;-66
2024/03/21 04:11:15;;;;;;;28.83;15.02;;;;;;;;;;5032523;28;20083;-69
2024/03/21 04:13:42;;;;;;;28.52;16.10;;;;;;;;;;5032196;28;20048;-69
2024/03/21 04:16:16;;;;;;;43.78;17.15;;;;;;;;;;5032462;28;20432;-70
2024/03/21 04:18:42;;;;;;;31.20;17.05;;;;;;;;;;5032228;28;20025;-69
2024/03/21 04:21:08;;;;;;;31.33;16.02;;;;;;;;;;5050506;28;20772;-69
2024/03/21 04:23:34;;;;;;;30.50;15.18;;;;;;;;;;5050489;28;20182;-69
2024/03/21 04:26:00;;;;;;;32.72;16.52;;;;;;;;;;5032522;28;20021;-69
2024/03/21 04:28:26;;;;;;;29.13;15.43;;;;;;;;;;5032252;28;20029;-70
2024/03/21 04:30:51;;;;;;;34.38;15.70;;;;;;;;;;5032427;28;20028;-69
2024/03/21 04:33:17;;;;;;;28.65;16.42;;;;;;;;;;5032784;28;20112;-71
2024/03/21 04:35:43;;;;;;;27.50;15.20;;;;;;;;;;5032226;28;20376;-71
2024/03/21 04:38:08;;;;;;;30.98;15.10;;;;;;;;;;5050539;28;20025;-72
2024/03/21 04:40:34;;;;;;;29.10;15.45;;;;;;;;;;5031996;28;20028;-70
2024/03/21 04:43:00;;;;;;;25.73;15.65;;;;;;;;;;5031975;28;20025;-69
2024/03/21 04:45:26;;;;;;;30.85;15.43;;;;;;;;;;5031961;28;20370;-69
2024/03/21 04:47:51;;;;;;;32.72;17.38;;;;;;;;;;5031764;28;20060;-69
2024/03/21 04:50:20;;;;;;;37.00;16.83;;;;;;;;;;5031676;28;20413;-70
2024/03/21 04:52:46;;;;;;;38.60;16.13;;;;;;;;;;5031776;28;20025;-70
2024/03/21 04:55:12;;;;;;;30.55;15.38;;;;;;;;;;5032186;28;20020;-69
2024/03/21 04:57:39;;;;;;;28.75;16.02;;;;;;;;;;5031596;28;20467;-70
2024/03/21 05:00:10;;;;;;;32.17;16.70;;;;;;;;;;5049990;28;20580;-70
2024/03/21 05:02:44;;;;;;;30.10;16.02;;;;;;;;;;5049942;28;20052;-70
2024/03/21 05:05:10;;;;;;;30.67;16.13;;;;;;;;;;5032844;28;20052;-68
2024/03/21 05:07:35;;;;;;;49.22;18.70;;;;;;;;;;5031060;28;20214;-71
2024/03/21 05:10:02;;;;;;;31.65;15.98;;;;;;;;;;5031504;28;20017;-69
2024/03/21 05:12:28;;;;;;;30.02;16.40;;;;;;;;;;5031848;28;20055;-69
2024/03/21 05:14:55;;;;;;;33.92;16.08;;;;;;;;;;5031450;28;20041;-70
2024/03/21 05:17:22;;;;;;;31.83;14.93;;;;;;;;;;5031704;28;20021;-68
2024/03/21 05:19:47;;;;;;;28.35;14.35;;;;;;;;;;5049569;28;20045;-70
2024/03/21 05:22:14;;;;;;;28.33;14.68;;;;;;;;;;5031745;28;20025;-68
2024/03/21 05:24:40;;;;;;;37.35;15.00;;;;;;;;;;5031106;28;20079;-69
2024/03/21 05:27:06;;;;;;;28.05;13.88;;;;;;;;;;5031355;28;20056;-70
2024/03/21 05:29:33;;;;;;;30.95;16.40;;;;;;;;;;5031172;28;20117;-71
2024/03/21 05:31:58;;;;;;;23.77;12.73;;;;;;;;;;5031415;28;20037;-69
2024/03/21 05:34:24;;;;;;;26.10;15.05;;;;;;;;;;5049510;28;20028;-69
2024/03/21 05:36:49;;;;;;;26.50;14.13;;;;;;;;;;5031274;28;20025;-67
2024/03/21 05:39:15;;;;;;;27.40;13.75;;;;;;;;;;5049743;28;20045;-68
2024/03/21 05:41:41;;;;;;;30.40;14.70;;;;;;;;;;5031586;28;20103;-68
2024/03/21 05:44:06;;;;;;;30.40;15.23;;;;;;;;;;5049410;28;20422;-69
2024/03/21 05:46:32;;;;;;;26.95;14.52;;;;;;;;;;5049475;28;20445;-68
2024/03/21 05:48:58;;;;;;;23.67;13.85;;;;;;;;;;5049230;28;20036;-68
2024/03/21 05:51:25;;;;;;;23.35;13.82;;;;;;;;;;5031654;28;20646;-69
2024/03/21 05:53:50;;;;;;;27.42;14.02;;;;;;;;;;5050317;28;20029;-67
2024/03/21 05:56:16;;;;;;;24.92;13.70;;;;;;;;;;5032415;28;20079;-70
2024/03/21 05:58:45;;;;;;;27.08;14.75;;;;;;;;;;5049553;28;20047;-70
2024/03/21 06:03:41;;;;;;;30.08;14.45;;;;;;;;;;5049198;28;20047;-70
2024/03/21 06:06:07;;;;;;;28.75;14.82;;;;;;;;;;5049402;28;20120;-68
2024/03/21 06:08:33;;;;;;;22.25;12.43;;;;;;;;;;5031557;28;20029;-69
2024/03/21 06:10:58;;;;;;;20.95;12.98;;;;;;;;;;5031612;28;20029;-70
2024/03/21 06:13:24;;;;;;;23.30;13.15;;;;;;;;;;5031673;28;20542;-69
2024/03/21 06:15:50;;;;;;;25.98;13.85;;;;;;;;;;5031567;28;20408;-68
2024/03/21 06:18:15;;;;;;;26.92;14.07;;;;;;;;;;5032881;28;20031;-70
2024/03/21 06:20:44;;;;;;;24.80;14.63;;;;;;;;;;5034704;28;20028;-69
2024/03/21 06:23:10;;;;;;;29.23;13.95;;;;;;;;;;5037191;28;20033;-68
2024/03/21 06:25:37;;;;;;;28.98;14.70;;;;;;;;;;5055402;28;20036;-68
2024/03/21 06:28:04;;;;;;;29.00;13.55;;;;;;;;;;5037712;28;20017;-69
2024/03/21 06:30:30;;;;;;;27.95;14.15;;;;;;;;;;5043886;28;20062;-69
2024/03/21 06:32:56;;;;;;;23.52;14.00;;;;;;;;;;5045814;28;20059;-71
2024/03/21 06:35:23;;;;;;;32.65;14.52;;;;;;;;;;5033735;28;20500;-71
2024/03/21 06:37:52;;;;;;;31.60;15.63;;;;;;;;;;5034880;28;20091;-70
2024/03/21 06:40:18;;;;;;;22.58;14.52;;;;;;;;;;5053862;28;20148;-70
2024/03/21 06:42:44;;;;;;;27.50;14.98;;;;;;;;;;5035211;28;20152;-69
2024/03/21 06:45:10;;;;;;;27.95;14.68;;;;;;;;;;5036117;28;20072;-71
2024/03/21 06:47:43;;;;;;;47.08;19.02;;;;;;;;;;5035073;28;20040;-68
2024/03/21 06:50:16;;;;;;;29.35;15.93;;;;;;;;;;5055513;28;20036;-71
2024/03/21 06:52:44;;;;;;;36.13;15.73;;;;;;;;;;5049706;28;20495;-70
2024/03/21 06:55:14;;;;;;;23.70;13.48;;;;;;;;;;5071681;28;20021;-72
2024/03/21 06:57:49;;;;;;;30.92;15.65;;;;;;;;;;5036716;28;20064;-75
2024/03/21 07:00:16;;;;;;;27.08;14.27;;;;;;;;;;5053980;28;20427;-70
2024/03/21 07:02:42;;;;;;;26.63;15.05;;;;;;;;;;5053060;28;20028;-69
2024/03/21 07:05:09;;;;;;;26.15;14.13;;;;;;;;;;5041474;28;20060;-69
2024/03/21 07:07:35;;;;;;;25.80;13.70;;;;;;;;;;5052013;28;20021;-71
2024/03/21 07:10:02;;;;;;;28.23;13.15;;;;;;;;;;5051554;28;20025;-69
2024/03/21 07:12:28;;;;;;;33.30;14.82;;;;;;;;;;5048223;28;20033;-69
2024/03/21 07:14:57;;;;;;;26.30;14.85;;;;;;;;;;5036244;28;20025;-71
2024/03/21 07:17:23;;;;;;;29.10;14.68;;;;;;;;;;5061486;28;20048;-70
2024/03/21 07:19:48;;;;;;;30.40;14.07;;;;;;;;;;5059000;28;20059;-68
2024/03/21 07:22:14;;;;;;;27.38;15.57;;;;;;;;;;5038439;28;20500;-67
2024/03/21 07:24:40;;;;;;;27.80;15.07;;;;;;;;;;5049673;28;20052;-70
2024/03/21 07:27:06;;;;;;;24.98;13.93;;;;;;;;;;5032756;28;20120;-68
2024/03/21 07:29:32;;;;;;;30.65;14.88;;;;;;;;;;5032103;28;20045;-69
2024/03/21 07:31:59;;;;;;;31.77;15.05;;;;;;;;;;5043244;28;20496;-69
2024/03/21 07:34:25;;;;;;;31.52;14.35;;;;;;;;;;5043700;28;20156;-68
2024/03/21 07:36:51;;;;;;;29.35;14.32;;;;;;;;;;5038279;28;20111;-70
2024/03/21 07:39:20;;;;;;;23.13;13.20;;;;;;;;;;5036895;28;20025;-70
2024/03/21 07:41:47;;;;;;;27.08;13.77;;;;;;;;;;5034760;28;20021;-70
2024/03/21 07:44:13;;;;;;;29.48;13.85;;;;;;;;;;5064878;28;20029;-68
2024/03/21 07:46:39;;;;;;;24.23;13.80;;;;;;;;;;5058720;28;20569;-70
2024/03/21 07:49:07;;;;;;;23.40;13.43;;;;;;;;;;5052145;28;20028;-69
2024/03/21 07:51:33;;;;;;;38.58;15.80;;;;;;;;;;5053796;28;20106;-70
2024/03/21 07:53:59;;;;;;;23.52;13.65;;;;;;;;;;5047168;28;20218;-72
2024/03/21 07:56:24;;;;;;;22.35;11.68;;;;;;;;;;5066097;28;20159;-72
2024/03/21 07:58:52;;;;;;;21.15;12.27;;;;;;;;;;5062594;28;20182;-72
2024/03/21 08:01:19;;;;;;;23.85;12.20;;;;;;;;;;5043589;28;20496;-68
2024/03/21 08:03:44;;;;;;;21.10;12.85;;;;;;;;;;5066678;28;20036;-70
2024/03/21 08:06:10;;;;;;;23.65;12.55;;;;;;;;;;5043734;28;20377;-71
2024/03/21 08:08:36;;;;;;;22.95;12.45;;;;;;;;;;5049068;28;20385;-68
2024/03/21 08:11:01;;;;;;;28.02;13.32;;;;;;;;;;5061774;28;20592;-71
2024/03/21 08:13:27;;;;;;;21.55;11.75;;;;;;;;;;5044801;28;20024;-69
2024/03/21 08:15:55;;;;;;;23.02;12.45;;;;;;;;;;5038527;28;20376;-70
2024/03/21 08:18:22;;;;;;;23.83;12.80;;;;;;;;;;5062466;28;20404;-70
2024/03/21 08:20:48;;;;;;;23.02;12.57;;;;;;;;;;5058835;28;20116;-71
2024/03/21 08:23:14;;;;;;;22.88;12.15;;;;;;;;;;5049368;28;20131;-72
2024/03/21 08:25:40;;;;;;;23.70;12.23;;;;;;;;;;5057843;28;20090;-72
2024/03/21 08:28:06;;;;;;;27.95;12.82;;;;;;;;;;5063424;28;20035;-70
2024/03/21 08:30:33;;;;;;;26.02;13.48;;;;;;;;;;5047638;28;20036;-69
2024/03/21 08:32:58;;;;;;;21.05;12.27;;;;;;;;;;5044550;28;20059;-72
2024/03/21 08:35:26;;;;;;;26.90;13.57;;;;;;;;;;5035394;28;20421;-71
2024/03/21 08:37:51;;;;;;;22.33;12.70;;;;;;;;;;5031082;28;20199;-73
2024/03/21 08:40:18;;;;;;;22.92;12.10;;;;;;;;;;5067257;28;20103;-70
2024/03/21 08:42:46;;;;;;;26.10;12.52;;;;;;;;;;5044648;28;20036;-70
2024/03/21 08:45:11;;;;;;;18.95;11.55;;;;;;;;;;5061081;28;20472;-71
2024/03/21 08:47:37;;;;;;;23.65;12.15;;;;;;;;;;5060488;28;20028;-71
2024/03/21 08:50:04;;;;;;;22.05;11.45;;;;;;;;;;5035356;28;20072;-71
2024/03/21 08:52:33;;;;;;;23.02;12.48;;;;;;;;;;5041947;28;20039;-70
2024/03/21 08:54:58;;;;;;;21.15;12.10;;;;;;;;;;5061821;28;20388;-70
2024/03/21 08:57:24;;;;;;;30.60;13.93;;;;;;;;;;5035697;28;20024;-69
2024/03/21 08:59:50;;;;;;;19.98;11.98;;;;;;;;;;5041290;28;20036;-69
2024/03/21 09:02:17;;;;;;;23.88;12.32;;;;;;;;;;5065528;28;20327;-71
2024/03/21 09:04:44;;;;;;;21.25;11.27;;;;;;;;;;5060393;28;20024;-70
2024/03/21 09:07:11;;;;;;;19.95;11.95;;;;;;;;;;5035023;28;20024;-72
2024/03/21 09:09:37;;;;;;;20.05;11.98;;;;;;;;;;5036931;28;20028;-71
2024/03/21 09:12:06;;;;;;;23.45;11.02;;;;;;;;;;5060385;28;20093;-72
2024/03/21 09:14:32;;;;;;;25.60;11.68;;;;;;;;;;5039629;28;20330;-70
2024/03/21 09:16:57;;;;;;;19.15;11.52;;;;;;;;;;5038070;28;20033;-69
2024/03/21 09:19:24;;;;;;;18.50;10.68;;;;;;;;;;5062030;28;20455;-71
2024/03/21 09:21:50;;;;;;;21.27;11.05;;;;;;;;;;5057431;28;20032;-70
2024/03/21 09:24:16;;;;;;;21.00;11.48;;;;;;;;;;5054483;28;20025;-69
2024/03/21 09:26:42;;;;;;;17.75;10.07;;;;;;;;;;5035736;28;20021;-70
2024/03/21 09:29:08;;;;;;;20.27;10.60;;;;;;;;;;5044577;28;20033;-72
2024/03/21 09:31:35;;;;;;;21.17;11.70;;;;;;;;;;5027799;28;20041;-72
2024/03/21 09:34:02;;;;;;;20.83;10.52;;;;;;;;;;5065879;28;20082;-73
2024/03/21 09:36:29;;;;;;;22.50;11.98;;;;;;;;;;5036174;28;20060;-69
2024/03/21 09:38:54;;;;;;;26.30;12.05;;;;;;;;;;5039639;28;20024;-70
2024/03/21 09:41:20;;;;;;;22.58;11.75;;;;;;;;;;5041963;28;20082;-70
2024/03/21 09:43:46;;;;;;;26.67;10.98;;;;;;;;;;5044151;28;20032;-70
2024/03/21 09:46:21;;;;;;;23.30;12.77;;;;;;;;;;5041232;28;20060;-73
2024/03/21 09:48:47;;;;;;;23.00;11.30;;;;;;;;;;5049495;28;20032;-72
2024/03/21 09:51:26;;;;;;;19.42;11.55;;;;;;;;;;5062963;28;20079;-69
2024/03/21 09:53:53;;;;;;;30.25;11.10;;;;;;;;;;5020670;28;20053;-71
2024/03/21 09:56:19;;;;;;;16.45;9.95;;;;;;;;;;5026901;28;20135;-72
2024/03/21 09:58:46;;;;;;;21.25;10.90;;;;;;;;;;5044368;28;20044;-72
2024/03/21 10:01:24;;;;;;;18.15;9.73;;;;;;;;;;5050578;28;20045;-71
2024/03/21 10:03:57;;;;;;;23.25;11.75;;;;;;;;;;5065842;28;20036;-71
2024/03/21 10:06:25;;;;;;;17.77;9.52;;;;;;;;;;5046202;28;20036;-71
2024/03/21 10:08:51;;;;;;;20.25;11.13;;;;;;;;;;5069000;28;20028;-71
2024/03/21 10:11:19;;;;;;;17.50;9.90;;;;;;;;;;5031065;28;20044;-71
2024/03/21 10:13:45;;;;;;;21.63;10.63;;;;;;;;;;5026243;28;20067;-69
2024/03/21 10:16:14;;;;;;;17.08;10.60;;;;;;;;;;5045432;28;20098;-70
2024/03/21 10:18:41;;;;;;;24.90;11.15;;;;;;;;;;5064970;28;20044;-71
2024/03/21 10:21:22;;;;;;;17.92;10.57;;;;;;;;;;5047747;28;20040;-71
2024/03/21 10:23:48;;;;;;;17.77;10.57;;;;;;;;;;5047264;28;20040;-71
2024/03/21 10:26:15;;;;;;;18.17;9.52;;;;;;;;;;5048704;28;20020;-72
2024/03/21 10:28:42;;;;;;;14.73;8.95;;;;;;;;;;5042398;28;20534;-72
2024/03/21 10:31:16;;;;;;;18.85;8.25;;;;;;;;;;5064832;28;20032;-71
2024/03/21 10:33:45;;;;;;;19.98;8.38;;;;;;;;;;5068418;28;20051;-70
2024/03/21 10:36:14;;;;;;;17.30;8.90;;;;;;;;;;5049710;28;20076;-70
2024/03/21 10:38:41;;;;;;;20.25;12.15;;;;;;;;;;5052052;28;20020;-72
2024/03/21 10:41:27;;;;;;;15.45;8.35;;;;;;;;;;5053889;28;20051;-71
2024/03/21 10:43:58;;;;;;;14.30;7.50;;;;;;;;;;5049765;28;20496;-70
2024/03/21 10:46:24;;;;;;;17.23;8.38;;;;;;;;;;5065165;28;20032;-70
2024/03/21 10:48:51;;;;;;;14.07;8.32;;;;;;;;;;5060899;28;20035;-69
2024/03/21 10:51:22;;;;;;;13.25;8.00;;;;;;;;;;5019304;28;20532;-70
2024/03/21 10:54:04;;;;;;;15.57;8.45;;;;;;;;;;5028681;28;20032;-71
2024/03/21 10:56:37;;;;;;;18.98;8.23;;;;;;;;;;5043203;28;20036;-70
2024/03/21 10:59:03;;;;;;;12.25;7.68;;;;;;;;;;5043683;28;20051;-70
2024/03/21 11:01:38;;;;;;;15.23;8.55;;;;;;;;;;5062971;28;20539;-71
2024/03/21 11:04:11;;;;;;;15.43;7.95;;;;;;;;;;5070848;28;20082;-70
2024/03/21 11:06:42;;;;;;;16.77;8.02;;;;;;;;;;5053440;28;20084;-69
2024/03/21 11:09:09;;;;;;;;;;;;;;;;;;5043614;28;20278;-70
2024/03/21 11:11:35;;;;;;;12.65;7.65;;;;;;;;;;5067294;28;19983;-70
2024/03/21 11:14:10;;;;;;;12.35;8.23;;;;;;;;;;5059962;28;20873;-72
2024/03/21 11:16:38;;;;;;;17.35;7.43;;;;;;;;;;5049147;28;20025;-70
2024/03/21 11:19:04;;;;;;;16.40;8.30;;;;;;;;;;5041075;28;20025;-72
2024/03/21 11:21:30;;;;;;;14.40;7.40;;;;;;;;;;5048886;28;20091;-71
2024/03/21 11:23:55;;;;;;;13.95;6.88;;;;;;;;;;5066126;28;20032;-73
2024/03/21 11:26:21;;;;;;;9.80;5.72;;;;;;;;;;5045245;28;20431;-71
2024/03/21 11:28:51;;;;;;;10.30;5.93;;;;;;;;;;5066853;28;20535;-71
2024/03/21 11:31:21;;;;;;;11.75;6.10;;;;;;;;;;5048857;28;20480;-75
2024/03/21 11:33:51;;;;;;;13.27;6.10;;;;;;;;;;5053140;28;20033;-75
2024/03/21 11:36:18;;;;;;;8.90;6.13;;;;;;;;;;5055390;28;20086;-71
2024/03/21 11:38:45;;;;;;;10.18;5.55;;;;;;;;;;5053438;28;20025;-75
2024/03/21 11:41:19;;;;;;;10.98;5.40;;;;;;;;;;5051868;28;20036;-75
2024/03/21 11:43:53;;;;;;;18.65;4.85;;;;;;;;;;5045644;28;20134;-75
2024/03/21 11:46:19;;;;;;;7.72;4.95;;;;;;;;;;5038855;28;20106;-77
2024/03/21 11:49:04;;;;;;;12.30;5.88;;;;;;;;;;5071500;28;20030;-75
2024/03/21 11:51:31;;;;;;;9.63;5.63;;;;;;;;;;5039552;28;20059;-75
2024/03/21 11:53:59;;;;;;;9.85;5.25;;;;;;;;;;5041883;28;20107;-75
2024/03/21 11:56:26;;;;;;;11.50;6.22;;;;;;;;;;5038561;28;20020;-76
2024/03/21 11:58:54;;;;;;;8.70;5.53;;;;;;;;;;5040494;28;20032;-74
2024/03/21 12:01:20;;;;;;;9.18;5.80;;;;;;;;;;5036157;28;20051;-76
2024/03/21 12:03:45;;;;;;;8.13;5.05;;;;;;;;;;5034228;28;20091;-71
2024/03/21 12:06:11;;;;;;;8.57;5.22;;;;;;;;;;5056165;28;20084;-75
2024/03/21 12:08:37;;;;;;;11.13;5.72;;;;;;;;;;5046350;28;20028;-73
2024/03/21 12:11:19;;;;;;;10.82;5.50;;;;;;;;;;5068865;28;20613;-76
2024/03/21 12:13:47;;;;;;;9.43;5.75;;;;;;;;;;5063051;28;20063;-76
2024/03/21 12:16:38;;;;;;;10.95;6.72;;;;;;;;;;5051860;28;20048;-76
2024/03/21 12:19:07;;;;;;;13.52;6.97;;;;;;;;;;5047360;28;20045;-75
2024/03/21 12:21:33;;;;;;;12.25;6.32;;;;;;;;;;5071055;28;20025;-73
2024/03/21 12:23:59;;;;;;;17.58;6.53;;;;;;;;;;5080717;28;20439;-72
2024/03/21 12:26:26;;;;;;;12.43;6.35;;;;;;;;;;5075039;28;20036;-76
2024/03/21 12:28:52;;;;;;;14.98;6.68;;;;;;;;;;5050931;28;20039;-77
2024/03/21 12:31:19;;;;;;;12.77;6.00;;;;;;;;;;5064865;28;20020;-77
2024/03/21 12:33:47;;;;;;;12.48;7.38;;;;;;;;;;5046966;28;20366;-72
2024/03/21 12:36:13;;;;;;;14.70;7.32;;;;;;;;;;5048859;28;20051;-75
2024/03/21 12:38:41;;;;;;;9.73;6.78;;;;;;;;;;5065663;28;20056;-75
2024/03/21 12:41:10;;;;;;;11.45;7.35;;;;;;;;;;5049164;28;20033;-75
2024/03/21 12:43:38;;;;;;;10.88;6.35;;;;;;;;;;5044378;28;20140;-74
2024/03/21 12:46:03;;;;;;;9.65;6.47;;;;;;;;;;5031422;28;20143;-73
2024/03/21 12:48:35;;;;;;;17.83;9.52;;;;;;;;;;5049255;28;20065;-75
2024/03/21 12:51:05;;;;;;;12.00;7.22;;;;;;;;;;5061995;28;20040;-74
2024/03/21 12:53:31;;;;;;;12.35;7.38;;;;;;;;;;5049802;28;20028;-76
2024/03/21 12:55:57;;;;;;;13.38;7.60;;;;;;;;;;5062363;28;20088;-76
2024/03/21 12:58:24;;;;;;;17.13;6.32;;;;;;;;;;5063816;28;20426;-77
2024/03/21 13:00:55;;;;;;;8.23;6.35;;;;;;;;;;5066027;28;20024;-76
2024/03/21 13:03:23;;;;;;;9.93;6.63;;;;;;;;;;5047931;28;20032;-77
2024/03/21 13:05:49;;;;;;;9.48;6.13;;;;;;;;;;5041943;28;20274;-75
2024/03/21 13:08:16;;;;;;;13.30;6.68;;;;;;;;;;5068962;28;20040;-75
2024/03/21 13:10:42;;;;;;;9.85;7.03;;;;;;;;;;5046666;28;20039;-72
2024/03/21 13:13:08;;;;;;;10.98;6.78;;;;;;;;;;5048932;28;20107;-76
2024/03/21 13:15:34;;;;;;;20.48;9.02;;;;;;;;;;5051673;28;20029;-77
2024/03/21 13:18:00;;;;;;;18.27;9.55;;;;;;;;;;5046719;28;20055;-74
2024/03/21 13:20:27;;;;;;;16.90;9.85;;;;;;;;;;5032066;28;20530;-74
2024/03/21 13:22:53;;;;;;;18.17;10.07;;;;;;;;;;5063917;28;20032;-74
2024/03/21 13:25:21;;;;;;;18.40;10.35;;;;;;;;;;5044610;28;20416;-75
2024/03/21 13:27:50;;;;;;;17.95;9.93;;;;;;;;;;5023628;28;20047;-75
2024/03/21 13:30:17;;;;;;;13.23;8.63;;;;;;;;;;5029563;28;20037;-74
2024/03/21 13:32:49;;;;;;;19.02;9.60;;;;;;;;;;5043364;28;20037;-76
2024/03/21 13:35:16;;;;;;;13.38;7.75;;;;;;;;;;5050561;28;20365;-75
2024/03/21 13:37:45;;;;;;;16.95;8.27;;;;;;;;;;5042828;28;20087;-75
2024/03/21 13:40:13;;;;;;;15.25;8.32;;;;;;;;;;5063505;28;20028;-75
2024/03/21 13:42:42;;;;;;;14.60;8.70;;;;;;;;;;5030121;28;20557;-74
2024/03/21 13:45:10;;;;;;;13.23;9.07;;;;;;;;;;5039383;28;20032;-79
2024/03/21 13:47:40;;;;;;;16.23;8.90;;;;;;;;;;5046550;28;20064;-74
2024/03/21 13:50:10;;;;;;;16.15;9.65;;;;;;;;;;5049397;28;20569;-76
2024/03/21 13:52:37;;;;;;;22.17;9.93;;;;;;;;;;5050921;28;20020;-76
2024/03/21 13:55:08;;;;;;;17.10;10.45;;;;;;;;;;5026803;28;20488;-75
2024/03/21 13:57:34;;;;;;;16.60;10.40;;;;;;;;;;5047708;28;20480;-76
2024/03/21 14:00:04;;;;;;;17.10;10.80;;;;;;;;;;5051078;28;20461;-76
2024/03/21 14:02:33;;;;;;;18.47;11.83;;;;;;;;;;5045672;28;20033;-74
2024/03/21 14:05:03;;;;;;;18.45;10.80;;;;;;;;;;5064821;28;20286;-75
2024/03/21 14:07:30;;;;;;;16.47;9.83;;;;;;;;;;5047616;28;20036;-74
2024/03/21 14:09:57;;;;;;;18.30;10.88;;;;;;;;;;5046874;28;20203;-76
2024/03/21 14:12:28;;;;;;;19.63;11.95;;;;;;;;;;5059946;28;20084;-72
2024/03/21 14:14:53;;;;;;;19.83;11.90;;;;;;;;;;5062623;28;20433;-72
2024/03/21 14:17:20;;;;;;;22.40;12.57;;;;;;;;;;5065511;28;20050;-77
2024/03/21 14:19:47;;;;;;;25.33;13.15;;;;;;;;;;5046990;28;20704;-72
2024/03/21 14:22:13;;;;;;;21.58;13.30;;;;;;;;;;5046833;28;20051;-75
2024/03/21 14:24:39;;;;;;;21.42;12.80;;;;;;;;;;5046166;28;20032;-74
2024/03/21 14:27:07;;;;;;;21.27;12.93;;;;;;;;;;5070398;28;20025;-75